createdAt,value
2019-03-06T00:02:13.391Z,18.63
2019-03-06T00:04:44.221Z,18.37
2019-03-06T00:07:14.677Z,18.50
2019-03-06T00:09:46.712Z,16.67
2019-03-06T00:12:17.166Z,16.73
2019-03-06T00:14:47.630Z,16.37
2019-03-06T00:17:18.276Z,16.80
2019-03-06T00:19:49.602Z,15.85
2019-03-06T00:22:20.059Z,17.37
2019-03-06T00:24:50.773Z,15.45
2019-03-06T00:27:21.246Z,16.23
2019-03-06T00:29:52.742Z,15.33
2019-03-06T00:32:23.130Z,14.43
2019-03-06T00:34:55.018Z,13.80
2019-03-06T00:37:25.598Z,14.93
2019-03-06T00:40:02.104Z,14.47
2019-03-06T00:42:34.637Z,14.33
2019-03-06T00:45:07.104Z,15.03
2019-03-06T00:47:37.615Z,14.53
2019-03-06T00:50:08.344Z,13.83
2019-03-06T00:52:38.855Z,14.60
2019-03-06T00:55:09.267Z,14.87
2019-03-06T00:57:39.795Z,15.13
2019-03-06T01:00:11.041Z,14.75
2019-03-06T01:02:41.670Z,14.17
2019-03-06T01:05:12.258Z,14.10
2019-03-06T01:07:44.428Z,13.27
2019-03-06T01:10:15.662Z,14.23
2019-03-06T01:12:46.611Z,13.63
2019-03-06T01:15:17.517Z,14.00
2019-03-06T01:17:49.757Z,13.60
2019-03-06T01:20:20.563Z,13.45
2019-03-06T01:22:51.660Z,14.17
2019-03-06T01:25:22.328Z,13.77
2019-03-06T01:27:53.265Z,13.53
2019-03-06T01:30:23.891Z,14.15
2019-03-06T01:32:59.432Z,14.53
2019-03-06T01:35:43.656Z,13.83
2019-03-06T01:38:31.866Z,14.07
2019-03-06T01:41:20.799Z,15.10
2019-03-06T01:43:58.690Z,15.00
2019-03-06T01:46:30.848Z,15.20
2019-03-06T01:49:01.387Z,15.07
2019-03-06T01:51:31.873Z,15.80
2019-03-06T01:54:02.482Z,14.90
2019-03-06T01:56:33.195Z,15.80
2019-03-06T01:59:03.904Z,16.07
2019-03-06T02:01:34.716Z,15.53
2019-03-06T02:04:06.278Z,15.90
2019-03-06T02:06:36.868Z,15.87
2019-03-06T02:09:10.113Z,16.53
2019-03-06T02:11:41.037Z,15.67
2019-03-06T02:14:13.411Z,16.03
2019-03-06T02:16:44.014Z,16.90
2019-03-06T02:19:14.500Z,17.17
2019-03-06T02:21:45.333Z,17.63
2019-03-06T02:24:16.146Z,17.07
2019-03-06T02:26:46.734Z,15.90
2019-03-06T02:29:17.285Z,17.20
2019-03-06T02:31:47.719Z,17.57
2019-03-06T02:34:18.325Z,18.07
2019-03-06T02:36:49.239Z,19.02
2019-03-06T02:39:19.722Z,19.42
2019-03-06T02:41:50.335Z,18.83
2019-03-06T02:44:20.732Z,19.80
2019-03-06T02:46:51.211Z,20.77
2019-03-06T02:49:21.721Z,20.97
2019-03-06T02:51:52.360Z,20.07
2019-03-06T02:54:23.184Z,20.30
2019-03-06T02:56:54.160Z,22.27
2019-03-06T02:59:37.411Z,22.17
2019-03-06T03:02:33.064Z,22.07
2019-03-06T03:05:21.967Z,22.70
2019-03-06T03:07:52.666Z,24.07
2019-03-06T03:10:23.265Z,23.33
2019-03-06T03:12:53.736Z,24.30
2019-03-06T03:15:24.491Z,23.47
2019-03-06T03:17:54.934Z,24.50
2019-03-06T03:20:25.522Z,24.90
2019-03-06T03:22:56.035Z,25.50
2019-03-06T03:25:26.560Z,25.73
2019-03-06T03:27:57.292Z,23.00
2019-03-06T03:30:28.472Z,23.07
2019-03-06T03:32:59.673Z,22.97
2019-03-06T03:35:30.723Z,23.83
2019-03-06T03:38:02.230Z,24.80
2019-03-06T03:40:32.711Z,24.93
2019-03-06T03:43:03.495Z,26.27
2019-03-06T03:45:34.159Z,27.13
2019-03-06T03:48:04.637Z,26.17
2019-03-06T03:50:36.323Z,27.83
2019-03-06T03:53:07.021Z,27.13
2019-03-06T03:55:37.637Z,27.17
2019-03-06T03:58:08.079Z,26.80
2019-03-06T04:00:40.410Z,26.67
2019-03-06T04:03:10.812Z,27.60
2019-03-06T04:05:41.631Z,27.07
2019-03-06T04:08:12.014Z,27.10
2019-03-06T04:10:43.446Z,26.73
2019-03-06T04:13:14.025Z,25.77
2019-03-06T04:15:44.771Z,26.27
2019-03-06T04:18:15.248Z,25.37
2019-03-06T04:20:45.682Z,26.43
2019-03-06T04:23:16.679Z,26.25
2019-03-06T04:25:47.300Z,24.33
2019-03-06T04:28:17.868Z,25.33
2019-03-06T04:30:52.276Z,25.80
2019-03-06T04:33:22.788Z,24.63
2019-03-06T04:35:55.014Z,24.73
2019-03-06T04:38:25.569Z,23.87
2019-03-06T04:40:57.167Z,23.77
2019-03-06T04:43:27.486Z,25.03
2019-03-06T04:45:58.576Z,23.53
2019-03-06T04:48:29.017Z,23.40
2019-03-06T04:50:59.446Z,24.57
2019-03-06T04:53:30.593Z,24.70
2019-03-06T04:56:02.091Z,22.83
2019-03-06T04:58:32.591Z,22.93
2019-03-06T05:01:03.987Z,24.60
2019-03-06T05:03:34.617Z,24.20
2019-03-06T05:06:06.090Z,23.40
2019-03-06T05:08:36.679Z,25.10
2019-03-06T05:11:07.199Z,24.23
2019-03-06T05:13:37.640Z,24.73
2019-03-06T05:16:08.000Z,24.60
2019-03-06T05:19:00.861Z,23.53
2019-03-06T05:21:31.751Z,24.60
2019-03-06T05:24:02.492Z,25.43
2019-03-06T05:26:32.942Z,27.00
2019-03-06T05:29:03.775Z,26.23
2019-03-06T05:31:34.258Z,27.87
2019-03-06T05:34:04.779Z,29.83
2019-03-06T05:37:00.119Z,31.17
2019-03-06T05:39:30.494Z,33.07
2019-03-06T05:42:00.977Z,34.17
2019-03-06T05:44:31.435Z,35.10
2019-03-06T05:47:02.980Z,35.57
2019-03-06T05:49:33.400Z,35.03
2019-03-06T05:52:04.412Z,35.67
2019-03-06T05:54:35.552Z,36.07
2019-03-06T05:57:08.004Z,37.00
2019-03-06T05:59:38.465Z,36.03
2019-03-06T06:02:08.823Z,35.40
2019-03-06T06:04:39.467Z,35.00
2019-03-06T06:07:10.918Z,35.08
2019-03-06T06:09:41.435Z,35.97
2019-03-06T06:12:11.855Z,35.73
2019-03-06T06:14:42.604Z,36.47
2019-03-06T06:17:13.216Z,36.13
2019-03-06T06:19:44.115Z,35.30
2019-03-06T06:22:24.469Z,35.03
2019-03-06T06:24:54.839Z,35.30
2019-03-06T06:27:25.453Z,35.83
2019-03-06T06:29:57.893Z,35.73
2019-03-06T06:32:28.801Z,34.73
2019-03-06T06:34:59.196Z,34.57
2019-03-06T06:37:29.628Z,35.10
2019-03-06T06:40:00.320Z,34.93
2019-03-06T06:42:30.775Z,34.57
2019-03-06T06:45:01.932Z,32.93
2019-03-06T06:47:32.832Z,33.92
2019-03-06T06:50:03.561Z,32.63
2019-03-06T06:53:25.180Z,33.27
2019-03-06T06:56:37.439Z,32.03
2019-03-06T06:59:18.691Z,32.23
2019-03-06T07:02:26.818Z,31.07
2019-03-06T07:05:31.107Z,30.90
2019-03-06T07:08:20.455Z,31.30
2019-03-06T07:11:22.148Z,29.53
2019-03-06T07:14:26.787Z,29.00
2019-03-06T07:17:16.228Z,30.23
2019-03-06T07:20:05.560Z,27.47
2019-03-06T07:22:54.999Z,28.20
2019-03-06T07:25:32.039Z,27.40
2019-03-06T07:28:39.438Z,26.55
2019-03-06T07:31:16.542Z,25.90
2019-03-06T07:34:02.731Z,27.13
2019-03-06T07:37:10.788Z,25.77
2019-03-06T07:39:49.405Z,25.50
2019-03-06T07:42:46.554Z,24.30
2019-03-06T07:45:52.791Z,25.67
2019-03-06T07:48:36.264Z,23.90
2019-03-06T07:51:24.423Z,23.87
2019-03-06T07:54:15.039Z,23.37
2019-03-06T07:57:08.184Z,23.23
2019-03-06T07:59:38.651Z,24.07
2019-03-06T08:02:12.027Z,22.80
2019-03-06T08:04:51.821Z,20.47
2019-03-06T08:07:22.533Z,21.93
2019-03-06T08:09:53.271Z,19.63
2019-03-06T08:12:51.750Z,19.30
2019-03-06T08:15:44.672Z,19.87
2019-03-06T08:18:40.206Z,19.53
2019-03-06T08:21:28.485Z,20.17
2019-03-06T08:24:36.258Z,20.50
2019-03-06T08:27:06.646Z,19.98
2019-03-06T08:29:38.022Z,19.60
2019-03-06T08:32:26.622Z,19.50
2019-03-06T08:34:57.304Z,18.67
2019-03-06T08:37:27.952Z,19.17
2019-03-06T08:39:58.396Z,18.20
2019-03-06T08:42:29.075Z,16.83
2019-03-06T08:44:59.990Z,16.43
2019-03-06T08:47:38.295Z,16.03
2019-03-06T08:50:15.196Z,16.25
2019-03-06T08:52:51.543Z,16.37
2019-03-06T08:55:35.194Z,16.15
2019-03-06T08:58:34.444Z,14.97
2019-03-06T09:01:49.069Z,14.87
2019-03-06T09:04:36.286Z,15.72
2019-03-06T09:07:16.968Z,16.23
2019-03-06T09:10:15.575Z,15.30
2019-03-06T09:13:00.218Z,16.00
2019-03-06T09:15:50.864Z,13.13
2019-03-06T09:18:49.698Z,15.10
2019-03-06T09:21:40.637Z,14.20
2019-03-06T09:24:36.822Z,13.95
2019-03-06T09:27:25.071Z,12.80
2019-03-06T09:30:16.694Z,13.03
2019-03-06T09:33:21.348Z,12.20
2019-03-06T09:36:09.574Z,13.80
2019-03-06T09:38:56.221Z,13.28
2019-03-06T09:41:39.701Z,12.77
2019-03-06T09:44:35.213Z,13.27
2019-03-06T09:47:26.180Z,12.93
2019-03-06T09:50:24.785Z,12.33
2019-03-06T09:53:13.200Z,12.60
2019-03-06T09:56:08.788Z,13.80
2019-03-06T09:59:04.594Z,13.40
2019-03-06T10:02:09.744Z,12.60
2019-03-06T10:05:02.427Z,11.83
2019-03-06T10:08:10.063Z,11.77
2019-03-06T10:11:11.944Z,11.37
2019-03-06T10:13:47.668Z,12.37
2019-03-06T10:16:36.793Z,13.77
2019-03-06T10:19:24.752Z,13.17
2019-03-06T10:21:59.150Z,12.77
2019-03-06T10:24:30.085Z,13.00
2019-03-06T10:27:00.583Z,12.03
2019-03-06T10:29:32.518Z,11.93
2019-03-06T10:32:03.042Z,11.60
2019-03-06T10:34:33.757Z,11.30
2019-03-06T10:39:36.455Z,11.53
2019-03-06T10:42:06.860Z,10.80
2019-03-06T10:44:38.381Z,11.70
2019-03-06T10:47:08.793Z,11.63
2019-03-06T10:49:39.585Z,12.23
2019-03-06T10:52:10.403Z,12.20
2019-03-06T10:54:44.921Z,12.10
2019-03-06T10:57:14.833Z,11.13
2019-03-06T10:59:45.629Z,10.10
2019-03-06T11:02:16.355Z,9.80
2019-03-06T11:04:54.644Z,10.20
2019-03-06T11:07:24.999Z,10.83
2019-03-06T11:09:55.458Z,9.50
2019-03-06T11:12:26.762Z,10.53
2019-03-06T11:14:57.352Z,11.03
2019-03-06T11:17:28.094Z,10.60
2019-03-06T11:19:58.838Z,10.40
2019-03-06T11:22:29.218Z,10.50
2019-03-06T11:25:00.019Z,10.83
2019-03-06T11:27:32.319Z,11.57
2019-03-06T11:30:02.898Z,11.10
2019-03-06T11:32:33.772Z,10.60
2019-03-06T11:35:05.281Z,11.00
2019-03-06T11:37:36.152Z,11.20
2019-03-06T11:40:07.148Z,10.97
2019-03-06T11:42:38.001Z,12.23
2019-03-06T11:45:11.591Z,12.07
2019-03-06T11:47:42.410Z,10.83
2019-03-06T11:50:13.078Z,11.45
2019-03-06T11:52:43.794Z,10.57
2019-03-06T11:55:16.550Z,11.40
2019-03-06T11:57:47.655Z,12.03
2019-03-06T12:00:30.489Z,12.05
2019-03-06T12:03:01.153Z,10.83
2019-03-06T12:05:32.083Z,9.83
2019-03-06T12:08:03.986Z,10.67
2019-03-06T12:10:34.913Z,8.90
2019-03-06T12:13:09.816Z,8.70
2019-03-06T12:15:41.367Z,9.90
2019-03-06T12:18:12.259Z,10.27
2019-03-06T12:20:42.823Z,9.47
2019-03-06T12:23:13.292Z,9.83
2019-03-06T12:25:44.321Z,8.83
2019-03-06T12:28:15.800Z,9.23
2019-03-06T12:30:46.502Z,8.30
2019-03-06T12:33:22.022Z,8.87
2019-03-06T12:35:53.029Z,7.97
2019-03-06T12:38:23.602Z,7.83
2019-03-06T12:40:53.980Z,8.00
2019-03-06T12:43:25.348Z,7.20
2019-03-06T12:46:23.443Z,8.10
2019-03-06T12:48:52.921Z,7.23
2019-03-06T12:51:24.826Z,7.77
2019-03-06T12:53:55.168Z,6.43
2019-03-06T12:56:25.866Z,6.83
2019-03-06T12:58:56.622Z,8.57
2019-03-06T13:01:27.095Z,7.03
2019-03-06T13:03:57.830Z,6.50
2019-03-06T13:06:28.303Z,7.47
2019-03-06T13:08:59.446Z,6.23
2019-03-06T13:11:29.864Z,6.00
2019-03-06T13:14:02.541Z,5.43
2019-03-06T13:16:32.989Z,5.37
2019-03-06T13:19:04.022Z,5.57
2019-03-06T13:21:34.619Z,6.03
2019-03-06T13:24:06.416Z,5.27
2019-03-06T13:26:37.095Z,9.27
2019-03-06T13:29:08.539Z,5.97
2019-03-06T13:31:39.579Z,5.60
2019-03-06T13:34:15.221Z,6.53
2019-03-06T13:36:45.947Z,5.37
2019-03-06T13:39:17.219Z,5.03
2019-03-06T13:41:47.798Z,4.77
2019-03-06T13:44:19.100Z,4.62
2019-03-06T13:46:49.519Z,5.40
2019-03-06T13:49:20.057Z,5.43
2019-03-06T13:51:50.494Z,4.87
2019-03-06T13:54:20.935Z,4.87
2019-03-06T13:56:52.006Z,4.70
2019-03-06T13:59:22.824Z,4.20
2019-03-06T14:01:53.833Z,7.10
2019-03-06T14:04:25.208Z,7.53
2019-03-06T14:06:56.100Z,5.00
2019-03-06T14:09:27.200Z,7.20
2019-03-06T14:11:58.012Z,9.63
2019-03-06T14:14:31.112Z,4.07
2019-03-06T14:17:01.861Z,4.43
2019-03-06T14:19:32.475Z,3.80
2019-03-06T14:22:03.409Z,3.77
2019-03-06T14:24:34.205Z,3.67
2019-03-06T14:27:05.311Z,3.90
2019-03-06T14:29:35.808Z,3.80
2019-03-06T14:32:14.354Z,3.60
2019-03-06T14:34:39.185Z,3.83
2019-03-06T14:37:09.698Z,3.50
2019-03-06T14:39:41.288Z,3.63
2019-03-06T14:42:11.775Z,3.80
2019-03-06T14:44:42.277Z,3.30
2019-03-06T14:47:15.222Z,4.95
2019-03-06T14:49:46.237Z,5.27
2019-03-06T14:52:16.788Z,4.20
2019-03-06T14:54:47.422Z,3.90
2019-03-06T14:57:18.053Z,3.90
2019-03-06T14:59:48.487Z,3.60
2019-03-06T15:02:19.052Z,3.35
2019-03-06T15:04:49.593Z,4.77
2019-03-06T15:07:20.059Z,4.93
2019-03-06T15:09:50.711Z,5.05
2019-03-06T15:12:21.122Z,4.33
2019-03-06T15:14:51.766Z,3.77
2019-03-06T15:17:22.354Z,4.05
2019-03-06T15:19:53.297Z,3.30
2019-03-06T15:22:24.253Z,5.08
2019-03-06T15:24:54.626Z,3.57
2019-03-06T15:27:25.131Z,4.00
2019-03-06T15:29:55.709Z,4.97
2019-03-06T15:32:26.130Z,5.07
2019-03-06T15:34:56.977Z,7.10
2019-03-06T15:37:27.543Z,3.50
2019-03-06T15:39:58.037Z,3.70
2019-03-06T15:42:28.554Z,4.00
2019-03-06T15:44:58.957Z,3.40
2019-03-06T15:47:33.577Z,4.47
2019-03-06T15:50:01.580Z,7.83
2019-03-06T15:52:32.446Z,6.17
2019-03-06T15:55:02.830Z,7.13
2019-03-06T15:57:33.258Z,4.70
2019-03-06T16:00:03.640Z,3.50
2019-03-06T16:02:34.125Z,4.23
2019-03-06T16:05:05.509Z,7.67
2019-03-06T16:07:36.137Z,4.17
2019-03-06T16:10:06.856Z,5.53
2019-03-06T16:12:38.312Z,4.07
2019-03-06T16:15:08.974Z,9.07
2019-03-06T16:17:39.787Z,6.23
2019-03-06T16:20:14.817Z,6.72
2019-03-06T16:22:46.160Z,5.63
2019-03-06T16:25:16.532Z,6.90
2019-03-06T16:27:47.047Z,7.90
2019-03-06T16:30:18.511Z,10.77
2019-03-06T16:32:49.627Z,7.30
2019-03-06T16:35:20.264Z,9.77
2019-03-06T16:37:50.992Z,8.93
2019-03-06T16:40:21.670Z,10.77
2019-03-06T16:42:52.583Z,8.70
2019-03-06T16:45:24.854Z,9.23
2019-03-06T16:47:55.440Z,7.27
2019-03-06T16:50:26.611Z,13.73
2019-03-06T16:52:57.141Z,11.60
2019-03-06T16:55:27.966Z,9.83
2019-03-06T16:57:58.976Z,10.47
2019-03-06T17:00:31.434Z,15.03
2019-03-06T17:03:02.576Z,9.67
2019-03-06T17:05:33.931Z,7.70
2019-03-06T17:08:05.291Z,9.50
2019-03-06T17:10:36.812Z,9.50
2019-03-06T17:13:07.723Z,9.33
2019-03-06T17:15:38.443Z,8.77
2019-03-06T17:18:09.155Z,7.53
2019-03-06T17:20:39.638Z,9.87
2019-03-06T17:23:10.390Z,9.83
2019-03-06T17:25:41.215Z,10.27
2019-03-06T17:28:11.684Z,7.90
2019-03-06T17:30:42.500Z,10.67
2019-03-06T17:33:12.899Z,13.50
2019-03-06T17:35:44.065Z,8.83
2019-03-06T17:38:15.031Z,11.10
2019-03-06T17:40:45.728Z,12.37
2019-03-06T17:43:16.533Z,13.67
2019-03-06T17:45:47.939Z,11.17
2019-03-06T17:48:19.953Z,11.48
2019-03-06T17:50:50.546Z,12.63
2019-03-06T17:53:21.349Z,11.28
2019-03-06T17:55:54.508Z,14.53
2019-03-06T17:58:25.144Z,15.77
2019-03-06T18:01:03.075Z,13.73
2019-03-06T18:03:45.055Z,20.63
2019-03-06T18:06:16.949Z,21.17
2019-03-06T18:08:47.421Z,19.00
2019-03-06T18:11:18.056Z,21.40
2019-03-06T18:13:48.548Z,19.07
2019-03-06T18:16:19.212Z,23.50
2019-03-06T18:18:51.182Z,21.87
2019-03-06T18:21:21.684Z,21.62
2019-03-06T18:23:52.241Z,21.97
2019-03-06T18:26:22.678Z,23.65
2019-03-06T18:28:54.688Z,20.90
2019-03-06T18:31:25.262Z,21.77
2019-03-06T18:33:56.057Z,23.37
2019-03-06T18:36:26.974Z,26.03
2019-03-06T18:38:57.557Z,32.30
2019-03-06T18:41:29.657Z,30.20
2019-03-06T18:44:01.023Z,29.13
2019-03-06T18:46:31.775Z,31.17
2019-03-06T18:49:02.740Z,35.33
2019-03-06T18:51:34.178Z,36.10
2019-03-06T18:54:04.706Z,43.57
2019-03-06T18:56:35.102Z,36.10
2019-03-06T18:59:07.914Z,41.70
2019-03-06T19:01:38.433Z,40.63
2019-03-06T19:04:09.048Z,43.77
2019-03-06T19:06:41.348Z,42.80
2019-03-06T19:09:12.693Z,40.43
2019-03-06T19:11:43.548Z,43.03
2019-03-06T19:14:14.120Z,45.93
2019-03-06T19:16:44.625Z,38.37
2019-03-06T19:19:14.978Z,44.23
2019-03-06T19:21:45.455Z,47.13
2019-03-06T19:24:15.947Z,44.80
2019-03-06T19:26:47.414Z,41.43
2019-03-06T19:29:18.341Z,44.73
2019-03-06T19:31:49.061Z,42.60
2019-03-06T19:34:19.612Z,44.53
2019-03-06T19:36:50.311Z,42.13
2019-03-06T19:39:22.412Z,48.67
2019-03-06T19:41:53.055Z,46.80
2019-03-06T19:44:23.694Z,48.40
2019-03-06T19:46:56.601Z,49.67
2019-03-06T19:49:27.114Z,51.40
2019-03-06T19:51:58.172Z,51.97
2019-03-06T19:54:28.694Z,50.07
2019-03-06T19:56:59.304Z,50.83
2019-03-06T19:59:29.830Z,49.83
2019-03-06T20:02:00.594Z,51.23
2019-03-06T20:04:31.392Z,52.77
2019-03-06T20:07:02.399Z,59.10
2019-03-06T20:09:32.941Z,62.13
2019-03-06T20:12:03.343Z,54.87
2019-03-06T20:14:34.063Z,54.13
2019-03-06T20:17:04.460Z,53.73
2019-03-06T20:19:35.299Z,56.07
2019-03-06T20:22:05.833Z,56.30
2019-03-06T20:24:36.367Z,55.23
2019-03-06T20:27:06.952Z,57.40
2019-03-06T20:29:37.671Z,54.40
2019-03-06T20:32:08.247Z,54.00
2019-03-06T20:34:38.704Z,52.43
2019-03-06T20:37:09.357Z,57.80
2019-03-06T20:39:39.888Z,51.97
2019-03-06T20:42:10.261Z,55.20
2019-03-06T20:44:40.763Z,57.47
2019-03-06T20:47:11.416Z,46.30
2019-03-06T20:49:41.822Z,53.60
2019-03-06T20:52:12.310Z,55.87
2019-03-06T20:54:42.755Z,52.37
2019-03-06T20:57:13.487Z,56.27
2019-03-06T20:59:44.498Z,59.90
2019-03-06T21:02:15.303Z,55.90
2019-03-06T21:04:45.723Z,49.07
2019-03-06T21:07:16.337Z,60.13
2019-03-06T21:09:47.011Z,55.73
2019-03-06T21:12:17.416Z,53.73
2019-03-06T21:14:47.807Z,50.67
2019-03-06T21:17:18.294Z,49.63
2019-03-06T21:19:49.146Z,51.50
2019-03-06T21:22:19.773Z,45.47
2019-03-06T21:24:50.539Z,45.43
2019-03-06T21:27:21.511Z,46.30
2019-03-06T21:29:52.271Z,49.43
2019-03-06T21:32:23.791Z,44.97
2019-03-06T21:34:54.325Z,46.27
2019-03-06T21:37:25.103Z,52.63
2019-03-06T21:39:56.583Z,53.53
2019-03-06T21:42:27.082Z,53.23
2019-03-06T21:44:57.764Z,47.67
2019-03-06T21:47:28.397Z,42.70
2019-03-06T21:49:58.992Z,40.20
2019-03-06T21:52:29.499Z,41.87
2019-03-06T21:55:00.031Z,46.50
2019-03-06T21:57:30.562Z,45.78
2019-03-06T22:00:01.879Z,49.30
2019-03-06T22:02:34.219Z,48.20
2019-03-06T22:05:04.749Z,45.57
2019-03-06T22:07:35.242Z,50.63
2019-03-06T22:10:06.457Z,51.08
2019-03-06T22:12:36.974Z,51.97
2019-03-06T22:15:08.974Z,45.73
2019-03-06T22:17:39.434Z,56.80
2019-03-06T22:20:11.188Z,59.00
2019-03-06T22:22:41.630Z,63.63
2019-03-06T22:25:13.019Z,57.60
2019-03-06T22:27:43.744Z,58.92
2019-03-06T22:30:16.535Z,57.03
2019-03-06T22:32:46.925Z,57.93
2019-03-06T22:35:17.429Z,53.65
2019-03-06T22:37:48.052Z,57.67
2019-03-06T22:40:21.179Z,53.87
2019-03-06T22:42:51.576Z,64.50
2019-03-06T22:45:22.194Z,59.75
2019-03-06T22:47:52.874Z,61.50
2019-03-06T22:50:23.565Z,65.87
2019-03-06T22:52:54.746Z,66.07
2019-03-06T22:55:25.578Z,67.37
2019-03-06T22:57:58.057Z,66.80
2019-03-06T23:00:52.072Z,57.50
2019-03-06T23:03:25.089Z,62.80
2019-03-06T23:05:55.718Z,71.03
2019-03-06T23:08:26.419Z,63.23
2019-03-06T23:10:57.384Z,66.97
2019-03-06T23:13:27.998Z,65.33
2019-03-06T23:15:58.934Z,70.97
2019-03-06T23:18:29.562Z,74.80
2019-03-06T23:21:00.288Z,60.93
2019-03-06T23:23:30.925Z,61.87
2019-03-06T23:26:01.660Z,65.03
2019-03-06T23:28:32.423Z,70.50
2019-03-06T23:31:03.136Z,66.97
2019-03-06T23:33:34.412Z,67.33
2019-03-06T23:36:06.187Z,55.87
2019-03-06T23:38:36.839Z,61.33
2019-03-06T23:41:07.577Z,57.70
2019-03-06T23:43:38.380Z,56.37
2019-03-06T23:46:08.820Z,54.07
2019-03-06T23:48:39.467Z,52.07
2019-03-06T23:51:16.236Z,47.88
2019-03-06T23:53:56.462Z,51.13
2019-03-06T23:56:26.977Z,49.97
2019-03-06T23:58:57.353Z,51.27
